createdAt,value
2017-10-22T00:01:44.055Z,100929.54
2017-10-22T00:04:11.705Z,100922.40
2017-10-22T00:06:39.342Z,100927.50
2017-10-22T00:09:07.006Z,100929.47
2017-10-22T00:11:34.634Z,100923.20
2017-10-22T00:14:02.229Z,100920.09
2017-10-22T00:16:29.845Z,100923.53
2017-10-22T00:18:57.477Z,100910.55
2017-10-22T00:21:25.078Z,100908.58
2017-10-22T00:23:52.703Z,100907.19
2017-10-22T00:26:20.395Z,100908.51
2017-10-22T00:28:48.020Z,100909.23
2017-10-22T00:31:15.658Z,100900.36
2017-10-22T00:33:43.277Z,100904.06
2017-10-22T00:36:10.915Z,100901.20
2017-10-22T00:38:38.571Z,100902.08
2017-10-22T00:41:06.171Z,100897.97
2017-10-22T00:43:33.810Z,100894.20
2017-10-22T00:46:01.429Z,100898.39
2017-10-22T00:48:29.051Z,100888.20
2017-10-22T00:50:56.672Z,100891.57
2017-10-22T00:53:24.321Z,100893.84
2017-10-22T00:55:51.911Z,100891.39
2017-10-22T00:58:19.539Z,100893.66
2017-10-22T01:00:47.138Z,100897.92
2017-10-22T01:03:14.823Z,100894.23
2017-10-22T01:05:42.486Z,100893.29
2017-10-22T01:08:10.172Z,100895.02
2017-10-22T01:10:37.847Z,100894.45
2017-10-22T01:13:05.535Z,100884.27
2017-10-22T01:15:33.162Z,100896.70
2017-10-22T01:18:00.758Z,100894.95
2017-10-22T01:20:28.476Z,100886.84
2017-10-22T01:22:56.087Z,100888.45
2017-10-22T01:25:23.798Z,100896.14
2017-10-22T01:27:51.498Z,100901.27
2017-10-22T01:30:19.197Z,100888.95
2017-10-22T01:32:46.793Z,100888.88
2017-10-22T01:35:14.478Z,100884.55
2017-10-22T01:37:42.161Z,100889.14
2017-10-22T01:40:09.820Z,100882.73
2017-10-22T01:42:37.473Z,100884.48
2017-10-22T01:45:05.113Z,100886.09
2017-10-22T01:47:32.768Z,100884.42
2017-10-22T01:50:00.478Z,100891.52
2017-10-22T01:52:28.129Z,100880.36
2017-10-22T01:54:55.829Z,100880.42
2017-10-22T01:57:23.487Z,100879.92
2017-10-22T01:59:51.189Z,100874.00
2017-10-22T02:02:18.846Z,100870.79
2017-10-22T02:04:46.478Z,100866.53
2017-10-22T02:07:14.065Z,100869.05
2017-10-22T02:09:41.735Z,100867.45
2017-10-22T02:12:09.327Z,100870.01
2017-10-22T02:14:36.970Z,100861.70
2017-10-22T02:17:04.688Z,100859.28
2017-10-22T02:19:32.319Z,100862.38
2017-10-22T02:22:00.043Z,100855.48
2017-10-22T02:24:27.683Z,100855.14
2017-10-22T02:26:55.412Z,100853.25
2017-10-22T02:29:23.077Z,100858.89
2017-10-22T02:31:50.694Z,100862.66
2017-10-22T02:34:18.339Z,100856.09
2017-10-22T02:36:46.051Z,100858.19
2017-10-22T02:39:13.739Z,100854.14
2017-10-22T02:41:41.418Z,100852.45
2017-10-22T02:44:09.080Z,100852.50
2017-10-22T02:46:36.766Z,100849.42
2017-10-22T02:49:04.418Z,100851.95
2017-10-22T02:51:32.124Z,100848.95
2017-10-22T02:53:59.787Z,100839.69
2017-10-22T02:56:27.468Z,100838.77
2017-10-22T02:58:55.059Z,100846.36
2017-10-22T03:01:22.758Z,100851.84
2017-10-22T03:03:50.417Z,100849.83
2017-10-22T03:06:18.129Z,100848.17
2017-10-22T03:08:45.775Z,100846.86
2017-10-22T03:11:13.415Z,100853.19
2017-10-22T03:13:41.093Z,100854.93
2017-10-22T03:16:08.734Z,100847.11
2017-10-22T03:18:36.421Z,100847.94
2017-10-22T03:21:04.010Z,100852.27
2017-10-22T03:23:31.716Z,100845.54
2017-10-22T03:25:59.315Z,100854.65
2017-10-22T03:28:27.014Z,100854.97
2017-10-22T03:30:54.660Z,100856.38
2017-10-22T03:33:22.291Z,100856.84
2017-10-22T03:35:49.863Z,100853.78
2017-10-22T03:38:17.594Z,100859.83
2017-10-22T03:40:45.173Z,100856.12
2017-10-22T03:43:12.802Z,100859.73
2017-10-22T03:45:40.446Z,100867.19
2017-10-22T03:48:08.067Z,100862.73
2017-10-22T03:50:35.731Z,100861.84
2017-10-22T03:53:03.424Z,100858.51
2017-10-22T03:55:30.997Z,100859.34
2017-10-22T03:57:58.691Z,100865.75
2017-10-22T04:00:26.360Z,100859.68
2017-10-22T04:02:53.990Z,100859.64
2017-10-22T04:05:21.638Z,100866.91
2017-10-22T04:07:49.291Z,100861.79
2017-10-22T04:10:16.915Z,100871.48
2017-10-22T04:12:44.571Z,100870.64
2017-10-22T04:15:12.200Z,100871.84
2017-10-22T04:17:39.854Z,100872.62
2017-10-22T04:20:07.538Z,100873.55
2017-10-22T04:22:35.191Z,100874.37
2017-10-22T04:25:02.876Z,100873.02
2017-10-22T04:27:30.471Z,100868.23
2017-10-22T04:29:58.157Z,100867.86
2017-10-22T04:32:25.735Z,100869.06
2017-10-22T04:34:53.433Z,100869.41
2017-10-22T04:37:21.019Z,100868.85
2017-10-22T04:39:48.643Z,100865.61
2017-10-22T04:42:16.289Z,100869.33
2017-10-22T04:44:43.975Z,100874.67
2017-10-22T04:47:11.629Z,100867.12
2017-10-22T04:49:39.270Z,100870.83
2017-10-22T04:52:06.924Z,100870.05
2017-10-22T04:54:34.557Z,100858.80
2017-10-22T04:57:02.176Z,100852.39
2017-10-22T04:59:29.780Z,100840.49
2017-10-22T05:01:57.470Z,100837.05
2017-10-22T05:04:25.058Z,100837.95
2017-10-22T05:06:53.594Z,100829.48
2017-10-22T05:09:21.258Z,100833.23
2017-10-22T05:11:48.949Z,100832.36
2017-10-22T05:14:16.586Z,100833.70
2017-10-22T05:16:44.262Z,100835.14
2017-10-22T05:19:11.910Z,100834.00
2017-10-22T05:21:39.597Z,100832.00
2017-10-22T05:24:07.262Z,100832.38
2017-10-22T05:26:37.320Z,100838.26
2017-10-22T05:29:04.966Z,100839.83
2017-10-22T05:31:32.661Z,100838.35
2017-10-22T05:34:00.320Z,100837.61
2017-10-22T05:36:28.001Z,100836.27
2017-10-22T05:38:55.680Z,100835.24
2017-10-22T05:41:23.332Z,100830.80
2017-10-22T05:43:51.011Z,100837.19
2017-10-22T05:46:18.654Z,100840.66
2017-10-22T05:48:46.283Z,100836.59
2017-10-22T05:51:13.945Z,100841.36
2017-10-22T05:53:41.567Z,100838.81
2017-10-22T05:56:09.214Z,100841.81
2017-10-22T05:58:36.891Z,100847.28
2017-10-22T06:01:04.530Z,100839.55
2017-10-22T06:03:32.211Z,100851.81
2017-10-22T06:05:59.850Z,100842.70
2017-10-22T06:08:27.479Z,100848.57
2017-10-22T06:10:55.085Z,100848.25
2017-10-22T06:13:22.702Z,100849.85
2017-10-22T06:15:50.309Z,100841.36
2017-10-22T06:18:18.005Z,100838.33
2017-10-22T06:20:45.649Z,100837.95
2017-10-22T06:23:13.329Z,100835.54
2017-10-22T06:25:40.968Z,100836.87
2017-10-22T06:28:08.619Z,100845.02
2017-10-22T06:30:36.275Z,100838.48
2017-10-22T06:33:03.952Z,100836.72
2017-10-22T06:35:31.579Z,100841.84
2017-10-22T06:37:59.173Z,100842.00
2017-10-22T06:40:26.862Z,100836.75
2017-10-22T06:42:54.524Z,100842.08
2017-10-22T06:45:22.201Z,100836.40
2017-10-22T06:47:49.783Z,100838.50
2017-10-22T06:50:17.402Z,100841.02
2017-10-22T06:52:45.088Z,100838.36
2017-10-22T06:55:12.784Z,100840.55
2017-10-22T06:57:40.386Z,100838.52
2017-10-22T07:00:08.061Z,100840.20
2017-10-22T07:02:35.727Z,100843.72
2017-10-22T07:05:03.632Z,100842.92
2017-10-22T07:07:32.079Z,100852.55
2017-10-22T07:09:59.715Z,100847.48
2017-10-22T07:12:27.310Z,100848.75
2017-10-22T07:14:58.452Z,100847.47
2017-10-22T07:17:26.043Z,100844.39
2017-10-22T07:19:53.689Z,100842.66
2017-10-22T07:22:21.349Z,100842.69
2017-10-22T07:24:49.009Z,100846.39
2017-10-22T07:27:16.683Z,100844.98
2017-10-22T07:29:44.288Z,100844.67
2017-10-22T07:32:11.974Z,100839.39
2017-10-22T07:34:39.570Z,100840.65
2017-10-22T07:37:07.310Z,100838.30
2017-10-22T07:39:34.930Z,100835.86
2017-10-22T07:42:02.571Z,100838.02
2017-10-22T07:44:30.246Z,100830.06
2017-10-22T07:46:57.929Z,100834.55
2017-10-22T07:49:25.581Z,100830.80
2017-10-22T07:51:53.203Z,100829.19
2017-10-22T07:54:20.859Z,100835.46
2017-10-22T07:56:48.469Z,100834.11
2017-10-22T07:59:16.062Z,100830.91
2017-10-22T08:01:43.681Z,100829.59
2017-10-22T08:04:11.284Z,100831.57
2017-10-22T08:06:38.997Z,100827.10
2017-10-22T08:09:06.650Z,100831.14
2017-10-22T08:11:34.247Z,100825.77
2017-10-22T08:14:01.918Z,100825.78
2017-10-22T08:16:29.534Z,100823.00
2017-10-22T08:18:57.163Z,100818.33
2017-10-22T08:21:24.928Z,100817.77
2017-10-22T08:23:52.544Z,100820.75
2017-10-22T08:26:20.178Z,100821.09
2017-10-22T08:28:47.794Z,100819.59
2017-10-22T08:31:15.365Z,100818.54
2017-10-22T08:33:42.980Z,100823.14
2017-10-22T08:36:10.557Z,100818.73
2017-10-22T08:38:38.178Z,100822.31
2017-10-22T08:41:05.758Z,100825.02
2017-10-22T08:43:33.392Z,100824.19
2017-10-22T08:46:00.993Z,100819.52
2017-10-22T08:48:28.629Z,100822.80
2017-10-22T08:50:56.284Z,100825.55
2017-10-22T08:53:23.911Z,100826.55
2017-10-22T08:55:51.601Z,100827.44
2017-10-22T08:58:19.245Z,100820.66
2017-10-22T09:00:46.971Z,100823.87
2017-10-22T09:03:14.653Z,100823.87
2017-10-22T09:05:42.368Z,100816.70
2017-10-22T09:08:10.674Z,100824.55
2017-10-22T09:10:38.287Z,100818.50
2017-10-22T09:13:05.936Z,100820.62
2017-10-22T09:15:33.590Z,100819.40
2017-10-22T09:18:01.194Z,100819.36
2017-10-22T09:20:28.865Z,100815.44
2017-10-22T09:22:56.513Z,100815.20
2017-10-22T09:25:24.215Z,100814.59
2017-10-22T09:27:51.851Z,100805.55
2017-10-22T09:30:19.487Z,100808.75
2017-10-22T09:32:47.145Z,100807.38
2017-10-22T09:35:14.811Z,100801.58
2017-10-22T09:37:42.457Z,100796.02
2017-10-22T09:40:10.097Z,100796.44
2017-10-22T09:42:37.714Z,100792.02
2017-10-22T09:45:05.387Z,100796.91
2017-10-22T09:47:32.999Z,100794.62
2017-10-22T09:50:00.634Z,100787.67
2017-10-22T09:52:28.281Z,100783.52
2017-10-22T09:54:55.914Z,100789.32
2017-10-22T09:57:23.601Z,100782.89
2017-10-22T09:59:51.190Z,100778.61
2017-10-22T10:02:18.890Z,100784.77
2017-10-22T10:04:46.503Z,100788.19
2017-10-22T10:07:14.200Z,100779.74
2017-10-22T10:09:41.802Z,100773.26
2017-10-22T10:12:09.475Z,100776.05
2017-10-22T10:14:37.150Z,100781.41
2017-10-22T10:17:04.857Z,100775.92
2017-10-22T10:19:32.498Z,100781.89
2017-10-22T10:22:00.143Z,100784.38
2017-10-22T10:24:27.738Z,100777.34
2017-10-22T10:26:55.368Z,100775.83
2017-10-22T10:29:22.945Z,100773.08
2017-10-22T10:31:50.573Z,100770.17
2017-10-22T10:34:18.205Z,100770.01
2017-10-22T10:36:45.814Z,100778.20
2017-10-22T10:39:13.401Z,100776.12
2017-10-22T10:41:41.009Z,100774.34
2017-10-22T10:44:08.669Z,100771.56
2017-10-22T10:46:36.307Z,100766.17
2017-10-22T10:49:04.018Z,100771.03
2017-10-22T10:51:31.726Z,100764.48
2017-10-22T10:53:59.325Z,100761.91
2017-10-22T10:56:26.968Z,100763.69
2017-10-22T10:58:54.622Z,100761.85
2017-10-22T11:01:22.243Z,100757.87
2017-10-22T11:03:49.919Z,100758.67
2017-10-22T11:06:17.585Z,100758.61
2017-10-22T11:08:46.073Z,100763.45
2017-10-22T11:11:13.773Z,100758.20
2017-10-22T11:13:41.451Z,100755.58
2017-10-22T11:16:09.116Z,100759.23
2017-10-22T11:18:36.804Z,100754.33
2017-10-22T11:21:04.480Z,100754.12
2017-10-22T11:23:32.156Z,100757.16
2017-10-22T11:25:59.804Z,100759.09
2017-10-22T11:28:27.498Z,100762.32
2017-10-22T11:30:55.108Z,100758.13
2017-10-22T11:33:22.730Z,100756.78
2017-10-22T11:35:50.311Z,100751.82
2017-10-22T11:38:18.039Z,100759.88
2017-10-22T11:40:45.684Z,100755.33
2017-10-22T11:43:13.387Z,100756.61
2017-10-22T11:45:41.071Z,100750.38
2017-10-22T11:48:08.728Z,100749.07
2017-10-22T11:50:36.441Z,100749.10
2017-10-22T11:53:04.087Z,100751.16
2017-10-22T11:55:31.775Z,100746.93
2017-10-22T11:57:59.426Z,100746.11
2017-10-22T12:00:27.040Z,100751.28
2017-10-22T12:02:54.628Z,100739.59
2017-10-22T12:05:22.262Z,100742.23
2017-10-22T12:07:49.918Z,100746.48
2017-10-22T12:10:17.549Z,100745.85
2017-10-22T12:12:45.204Z,100752.88
2017-10-22T12:15:12.882Z,100755.66
2017-10-22T12:17:40.622Z,100766.59
2017-10-22T12:20:08.254Z,100762.93
2017-10-22T12:22:35.912Z,100766.38
2017-10-22T12:25:03.631Z,100762.61
2017-10-22T12:27:31.245Z,100760.59
2017-10-22T12:29:58.852Z,100764.20
2017-10-22T12:32:26.453Z,100757.59
2017-10-22T12:34:54.083Z,100757.15
2017-10-22T12:37:21.677Z,100754.89
2017-10-22T12:39:49.278Z,100750.44
2017-10-22T12:42:16.896Z,100752.84
2017-10-22T12:44:44.492Z,100745.72
2017-10-22T12:47:12.152Z,100747.52
2017-10-22T12:49:39.833Z,100751.80
2017-10-22T12:52:07.498Z,100752.41
2017-10-22T12:54:35.105Z,100745.23
2017-10-22T12:57:02.746Z,100743.08
2017-10-22T12:59:30.359Z,100743.98
2017-10-22T13:01:57.994Z,100744.89
2017-10-22T13:04:25.606Z,100747.11
2017-10-22T13:06:53.241Z,100747.88
2017-10-22T13:09:20.842Z,100747.94
2017-10-22T13:11:48.483Z,100747.62
2017-10-22T13:14:16.131Z,100755.21
2017-10-22T13:16:43.750Z,100751.83
2017-10-22T13:19:11.406Z,100747.75
2017-10-22T13:21:39.090Z,100744.55
2017-10-22T13:24:06.750Z,100745.77
2017-10-22T13:26:34.392Z,100746.11
2017-10-22T13:29:02.147Z,100746.84
2017-10-22T13:31:29.727Z,100749.98
2017-10-22T13:33:57.434Z,100745.95
2017-10-22T13:36:25.076Z,100745.94
2017-10-22T13:38:52.825Z,100745.35
2017-10-22T13:41:20.488Z,100744.98
2017-10-22T13:43:48.198Z,100744.50
2017-10-22T13:46:15.885Z,100752.28
2017-10-22T13:48:43.527Z,100743.08
2017-10-22T13:51:11.193Z,100744.89
2017-10-22T13:53:38.915Z,100743.58
2017-10-22T13:56:06.675Z,100743.34
2017-10-22T13:58:34.375Z,100744.73
2017-10-22T14:01:02.020Z,100744.89
2017-10-22T14:03:29.714Z,100745.61
2017-10-22T14:05:57.379Z,100742.02
2017-10-22T14:08:25.083Z,100744.63
2017-10-22T14:10:52.736Z,100742.25
2017-10-22T14:13:20.430Z,100744.06
2017-10-22T14:15:48.130Z,100744.22
2017-10-22T14:18:15.771Z,100743.80
2017-10-22T14:20:43.464Z,100736.91
2017-10-22T14:23:11.098Z,100742.71
2017-10-22T14:25:38.786Z,100745.50
2017-10-22T14:28:06.457Z,100745.04
2017-10-22T14:30:34.134Z,100747.83
2017-10-22T14:33:01.774Z,100751.11
2017-10-22T14:35:29.446Z,100746.59
2017-10-22T14:37:57.130Z,100745.45
2017-10-22T14:40:24.846Z,100753.30
2017-10-22T14:42:52.521Z,100752.24
2017-10-22T14:45:20.207Z,100755.85
2017-10-22T14:47:47.796Z,100754.53
2017-10-22T14:50:15.432Z,100760.27
2017-10-22T14:52:43.010Z,100761.50
2017-10-22T14:55:10.649Z,100762.48
2017-10-22T14:57:38.262Z,100753.59
2017-10-22T15:00:05.893Z,100760.14
2017-10-22T15:02:33.494Z,100759.50
2017-10-22T15:05:01.133Z,100768.92
2017-10-22T15:07:28.752Z,100756.22
2017-10-22T15:09:56.385Z,100760.14
2017-10-22T15:12:24.132Z,100756.14
2017-10-22T15:14:51.768Z,100758.82
2017-10-22T15:17:19.402Z,100756.78
2017-10-22T15:19:47.351Z,100754.56
2017-10-22T15:22:14.983Z,100758.25
2017-10-22T15:24:42.658Z,100762.44
2017-10-22T15:27:10.257Z,100762.36
2017-10-22T15:29:39.601Z,100760.47
2017-10-22T15:32:10.206Z,100768.56
2017-10-22T15:34:38.554Z,100770.30
2017-10-22T15:37:06.257Z,100770.30
2017-10-22T15:39:33.847Z,100772.67
2017-10-22T15:42:01.476Z,100770.70
2017-10-22T15:44:29.053Z,100770.45
2017-10-22T15:46:56.871Z,100772.82
2017-10-22T15:49:24.534Z,100772.25
2017-10-22T15:57:44.264Z,100783.33
2017-10-22T16:00:11.940Z,100783.06
2017-10-22T16:02:39.543Z,100785.28
2017-10-22T16:05:15.553Z,100781.25
2017-10-22T16:07:43.862Z,100785.44
2017-10-22T16:10:15.584Z,100787.95
2017-10-22T16:12:47.414Z,100791.34
2017-10-22T16:15:19.046Z,100791.75
2017-10-22T16:17:46.693Z,100793.37
2017-10-22T16:20:14.269Z,100797.56
2017-10-22T16:22:52.191Z,100800.77
2017-10-22T16:25:34.711Z,100796.17
2017-10-22T16:28:02.441Z,100797.83
2017-10-22T16:30:34.013Z,100809.39
2017-10-22T16:33:01.651Z,100808.64
2017-10-22T16:35:29.260Z,100809.39
2017-10-22T16:37:56.920Z,100807.81
2017-10-22T16:40:30.405Z,100803.40
2017-10-22T16:42:58.031Z,100808.64
2017-10-22T16:45:25.832Z,100812.67
2017-10-22T16:47:53.986Z,100819.72
2017-10-22T16:50:21.571Z,100820.96
2017-10-22T16:52:52.560Z,100823.56
2017-10-22T16:55:22.008Z,100821.94
2017-10-22T16:57:49.634Z,100822.02
2017-10-22T17:00:17.229Z,100824.25
2017-10-22T17:02:44.935Z,100828.02
2017-10-22T17:05:15.045Z,100842.36
2017-10-22T17:07:42.630Z,100837.62
2017-10-22T17:10:10.246Z,100835.66
2017-10-22T17:12:41.816Z,100841.80
2017-10-22T17:15:10.467Z,100829.67
2017-10-22T17:17:38.052Z,100844.59
2017-10-22T17:20:06.457Z,100842.03
2017-10-22T17:22:34.061Z,100843.61
2017-10-22T17:25:01.778Z,100850.51
2017-10-22T17:27:29.428Z,100851.48
2017-10-22T17:29:57.066Z,100850.24
2017-10-22T17:32:31.331Z,100854.84
2017-10-22T17:34:59.365Z,100850.09
2017-10-22T17:37:26.949Z,100859.85
2017-10-22T17:39:54.557Z,100858.19
2017-10-22T17:42:22.137Z,100859.17
2017-10-22T17:44:49.777Z,100861.61
2017-10-22T17:47:17.438Z,100864.58
2017-10-22T17:49:45.121Z,100864.73
2017-10-22T17:52:12.727Z,100865.71
2017-10-22T17:54:42.400Z,100871.55
2017-10-22T17:57:12.139Z,100870.16
2017-10-22T17:59:40.460Z,100868.17
2017-10-22T18:02:08.098Z,100869.33
2017-10-22T18:04:36.753Z,100871.55
2017-10-22T18:07:04.370Z,100872.11
2017-10-22T18:09:32.022Z,100871.05
2017-10-22T18:11:59.672Z,100879.65
2017-10-22T18:14:27.295Z,100882.50
2017-10-22T18:16:54.963Z,100877.26
2017-10-22T18:19:22.545Z,100885.77
2017-10-22T18:24:38.080Z,100882.90
2017-10-22T18:27:05.723Z,100882.07
2017-10-22T18:29:33.576Z,100883.88
2017-10-22T18:32:01.219Z,100890.28
2017-10-22T18:34:28.820Z,100889.45
2017-10-22T18:36:56.704Z,100886.25
2017-10-22T18:39:24.340Z,100886.73
2017-10-22T18:41:51.977Z,100890.23
2017-10-22T18:44:19.617Z,100890.56
2017-10-22T18:46:52.489Z,100898.84
2017-10-22T18:49:20.097Z,100891.19
2017-10-22T18:51:47.727Z,100894.64
2017-10-22T18:54:17.681Z,100898.77
2017-10-22T18:56:45.328Z,100898.83
2017-10-22T18:59:12.930Z,100895.69
2017-10-22T19:01:40.571Z,100902.91
2017-10-22T19:04:08.219Z,100900.59
2017-10-22T19:06:35.844Z,100904.09
2017-10-22T19:09:03.459Z,100899.00
2017-10-22T19:11:31.136Z,100903.50
2017-10-22T19:13:58.770Z,100916.02
2017-10-22T19:16:26.414Z,100909.82
2017-10-22T19:18:54.041Z,100909.88
2017-10-22T19:21:21.659Z,100917.34
2017-10-22T19:23:49.311Z,100914.69
2017-10-22T19:26:26.695Z,100912.40
2017-10-22T19:28:54.345Z,100908.45
2017-10-22T19:31:21.951Z,100907.83
2017-10-22T19:33:49.598Z,100915.14
2017-10-22T19:36:17.215Z,100909.09
2017-10-22T19:38:44.859Z,100913.48
2017-10-22T19:41:12.461Z,100909.23
2017-10-22T19:43:40.100Z,100910.45
2017-10-22T19:46:07.699Z,100910.78
2017-10-22T19:48:35.347Z,100910.84
2017-10-22T19:51:02.999Z,100914.34
2017-10-22T19:53:33.839Z,100905.48
2017-10-22T19:56:01.707Z,100911.68
2017-10-22T19:58:29.348Z,100905.96
2017-10-22T20:00:56.993Z,100906.59
2017-10-22T20:03:24.631Z,100910.95
2017-10-22T20:05:52.294Z,100915.92
2017-10-22T20:08:20.015Z,100915.63
2017-10-22T20:10:47.665Z,100919.18
2017-10-22T20:13:15.269Z,100922.94
2017-10-22T20:15:42.921Z,100928.33
2017-10-22T20:18:10.523Z,100926.94
2017-10-22T20:20:38.211Z,100930.05
2017-10-22T20:23:05.869Z,100934.98
2017-10-22T20:25:33.516Z,100932.75
2017-10-22T20:28:01.206Z,100933.67
2017-10-22T20:30:28.825Z,100935.89
2017-10-22T20:32:56.487Z,100942.86
2017-10-22T20:35:24.142Z,100932.98
2017-10-22T20:37:55.915Z,100938.14
2017-10-22T20:40:35.089Z,100940.28
2017-10-22T20:43:10.649Z,100943.06
2017-10-22T20:45:49.048Z,100944.46
2017-10-22T20:48:16.656Z,100948.22
2017-10-22T20:50:44.290Z,100947.16
2017-10-22T20:53:11.893Z,100948.14
2017-10-22T20:55:39.599Z,100943.19
2017-10-22T20:58:07.199Z,100947.98
2017-10-22T21:00:34.906Z,100949.50
2017-10-22T21:03:02.593Z,100956.05
2017-10-22T21:05:30.275Z,100959.39
2017-10-22T21:07:57.921Z,100959.90
2017-10-22T21:10:25.659Z,100963.52
2017-10-22T21:12:53.251Z,100970.98
2017-10-22T21:15:27.089Z,100969.38
2017-10-22T21:17:54.710Z,100968.64
2017-10-22T21:20:22.435Z,100973.50
2017-10-22T21:22:50.049Z,100970.24
2017-10-22T21:25:17.763Z,100975.96
2017-10-22T21:27:45.357Z,100983.34
2017-10-22T21:30:13.095Z,100981.03
2017-10-22T21:32:40.753Z,100982.16
2017-10-22T21:35:08.399Z,100983.19
2017-10-22T21:37:36.150Z,100982.45
2017-10-22T21:40:03.739Z,100984.14
2017-10-22T21:42:31.437Z,100994.98
2017-10-22T21:44:59.086Z,100987.42
2017-10-22T21:47:26.706Z,100994.23
2017-10-22T21:49:54.325Z,100991.52
2017-10-22T21:52:21.988Z,100994.47
2017-10-22T21:54:49.663Z,101001.45
2017-10-22T21:57:17.361Z,100998.59
2017-10-22T21:59:44.969Z,101008.44
2017-10-22T22:02:12.659Z,101008.81
2017-10-22T22:04:40.333Z,101011.47
2017-10-22T22:07:08.005Z,101009.01
2017-10-22T22:09:35.658Z,101014.36
2017-10-22T22:12:03.282Z,101011.38
2017-10-22T22:14:30.881Z,101011.21
2017-10-22T22:16:58.564Z,101013.12
2017-10-22T22:19:26.203Z,101024.10
2017-10-22T22:21:53.828Z,101019.20
2017-10-22T22:24:21.457Z,101022.95
2017-10-22T22:26:49.134Z,101031.02
2017-10-22T22:29:16.715Z,101028.98
2017-10-22T22:31:44.437Z,101025.00
2017-10-22T22:34:12.091Z,101027.83
2017-10-22T22:36:39.797Z,101032.22
2017-10-22T22:39:07.486Z,101030.50
2017-10-22T22:41:35.133Z,101034.81
2017-10-22T22:44:02.762Z,101030.79
2017-10-22T22:46:30.418Z,101033.84
2017-10-22T22:48:58.051Z,101034.12
2017-10-22T22:51:25.693Z,101035.28
2017-10-22T22:53:53.327Z,101041.58
2017-10-22T22:56:20.978Z,101034.53
2017-10-22T22:58:48.686Z,101036.20
2017-10-22T23:01:16.267Z,101036.53
2017-10-22T23:03:43.915Z,101041.67
2017-10-22T23:06:11.571Z,101048.62
2017-10-22T23:08:39.267Z,101045.53
2017-10-22T23:11:06.938Z,101044.55
2017-10-22T23:13:34.638Z,101039.27
2017-10-22T23:16:02.216Z,101050.80
2017-10-22T23:18:29.829Z,101045.38
2017-10-22T23:20:57.485Z,101047.70
2017-10-22T23:23:25.185Z,101046.36
2017-10-22T23:25:52.776Z,101054.25
2017-10-22T23:28:21.352Z,101052.02
2017-10-22T23:30:49.012Z,101050.50
2017-10-22T23:33:16.713Z,101056.98
2017-10-22T23:35:44.301Z,101050.63
2017-10-22T23:38:11.968Z,101051.83
2017-10-22T23:40:39.657Z,101056.75
2017-10-22T23:43:07.264Z,101052.39
2017-10-22T23:45:34.956Z,101054.80
2017-10-22T23:48:02.572Z,101056.88
2017-10-22T23:50:30.273Z,101056.32
2017-10-22T23:52:57.911Z,101056.32
2017-10-22T23:55:25.632Z,101050.48
2017-10-22T23:57:53.236Z,101053.27
